Ana Sayfa
METAR-TAF:

METAR-TAF

Havaalanları :

Sussex Airport

Sussex, New Jersey, Amerika Birleşik Devletleri

Enlem: 41-12-01N, Boylam: 074-37-23W, yükseklik: 128 m

Güncel hava durumu gözlemi

Rapor saat 04:53 UTC de 49 dakika önce yapıldı.
Rüzgar güneybatıdan 4 kt
Sıcaklık 23°C
Nem 89%
Basınç 1013 hPa
Görüş mesafesi: 14.5 km
Açık gökyüzü

METAR: KFWN 220453Z AUTO 22004KT 9SM CLR 23/21 A2990 RMK AO2 SLP121 T02280211 403500217

Saat: 01:42 (05:42 UTC)


TAF: eksik

4.000'den fazla havaalanı için hava durumu gözlemleri ve tahminleri (METAR ve TAF raporları).

Kullanılabilir istasyonlar harita üzerinde sarı ve kırmızı noktalarla gösterilir.

İstasyonun adını görmek için fareyi noktanın üzerinde gezdirin.

Sonrasında hava gözlem ve tahminlerini görmek için tıklayın.

Haritayı değiştirmek için: yaklaştırmak için siyah artı işaretli yeşil düğmeye ve uzaklaştırmak için de eksi işaretli düğmeye hızla tıklayın; bitişik haritalar için yeşil okları kullanın.


METAR-TAF: